Time;durP1;ratioP1;P1;durP2;ratioP2;P2;SDS_P1;SDS_P2;PMS_P1;PMS_P2;Temp;Humidity;BMP_temperature;BMP_pressure;BME280_temperature;BME280_humidity;BME280_pressure;Samples;Min_cycle;Max_cycle;Signal;HPM_P1;HPM_P2
2023/12/30 00:01:56;;;;;;;;;;;;;;;7.64;100.00;97792.31;6111406;19;19929;-73
2023/12/30 00:03:56;;;;;;;;;;;;;;;7.51;100.00;97795.28;6113160;19;19915;-72
2023/12/30 00:05:56;;;;;;;;;;;;;;;7.41;100.00;97790.44;6111741;19;19926;-73
2023/12/30 00:07:57;;;;;;;;;;;;;;;7.35;100.00;97788.38;6113271;19;19934;-73
2023/12/30 00:09:57;;;;;;;;;;;;;;;7.35;100.00;97789.19;6111456;19;19919;-73
2023/12/30 00:11:57;;;;;;;;;;;;;;;7.36;100.00;97789.97;6111517;19;19907;-73
2023/12/30 00:13:57;;;;;;;;;;;;;;;7.36;100.00;97792.72;6109114;19;19925;-73
2023/12/30 00:15:58;;;;;;;;;;;;;;;7.32;100.00;97790.72;6109547;19;20339;-73
2023/12/30 00:17:58;;;;;;;;;;;;;;;7.28;100.00;97791.81;6110156;19;20350;-73
2023/12/30 00:19:58;;;;;;;;;;;;;;;7.31;100.00;97791.09;6108693;19;19915;-73
2023/12/30 00:21:58;;;;;;;;;;;;;;;7.25;100.00;97809.88;6110422;19;19907;-72
2023/12/30 00:23:58;;;;;;;;;;;;;;;7.24;100.00;97796.50;6111006;19;19958;-73
2023/12/30 00:25:58;;;;;;;;;;;;;;;7.21;100.00;97789.00;6110995;19;20335;-73
2023/12/30 00:27:59;;;;;;;;;;;;;;;7.13;100.00;97770.81;6112145;19;19918;-73
2023/12/30 00:29:59;;;;;;;;;;;;;;;7.03;100.00;97775.81;6112457;19;19941;-73
2023/12/30 00:32:02;;;;;;;;;;;;;;;7.01;100.00;97782.81;6109527;19;19914;-73
2023/12/30 00:34:02;;;;;;;;;;;;;;;6.97;100.00;97776.50;6111958;19;19935;-73
2023/12/30 00:36:03;;;;;;;;;;;;;;;6.93;100.00;97784.66;6110279;19;20328;-73
2023/12/30 00:38:03;;;;;;;;;;;;;;;6.98;100.00;97780.81;6110906;19;19914;-73
2023/12/30 00:40:04;;;;;;;;;;;;;;;7.07;100.00;97767.59;6111888;19;19917;-73
2023/12/30 00:42:05;;;;;;;;;;;;;;;7.09;100.00;97770.75;6109944;19;20264;-73
2023/12/30 00:44:05;;;;;;;;;;;;;;;7.14;100.00;97764.16;6110838;19;19918;-73
2023/12/30 00:46:05;;;;;;;;;;;;;;;7.16;100.00;97768.09;6111505;19;19922;-72
2023/12/30 00:48:05;;;;;;;;;;;;;;;7.18;100.00;97782.28;6110212;19;19922;-73
2023/12/30 00:50:06;;;;;;;;;;;;;;;7.24;100.00;97780.78;6112916;19;19910;-73
2023/12/30 00:52:06;;;;;;;;;;;;;;;7.26;100.00;97786.72;6110022;19;19942;-72
2023/12/30 00:54:06;;;;;;;;;;;;;;;7.31;100.00;97766.34;6111743;19;19994;-72
2023/12/30 00:56:07;;;;;;;;;;;;;;;7.27;100.00;97776.50;6109963;19;20364;-72
2023/12/30 00:58:07;;;;;;;;;;;;;;;7.23;100.00;97784.72;6111062;19;19924;-72
2023/12/30 01:00:07;;;;;;;;;;;;;;;7.30;100.00;97784.00;6110924;19;19919;-72
2023/12/30 01:02:08;;;;;;;;;;;;;;;7.28;100.00;97781.66;6109696;19;20705;-72
2023/12/30 01:04:08;;;;;;;;;;;;;;;7.29;100.00;97774.97;6108396;19;19943;-72
2023/12/30 01:06:08;;;;;;;;;;;;;;;7.23;100.00;97778.41;6109923;19;19915;-72
2023/12/30 01:08:09;;;;;;;;;;;;;;;7.17;100.00;97768.91;6110204;19;19929;-72
2023/12/30 01:10:09;;;;;;;;;;;;;;;7.21;100.00;97772.50;6111383;19;20495;-72
2023/12/30 01:12:09;;;;;;;;;;;;;;;7.31;100.00;97767.13;6109932;19;19918;-72
2023/12/30 01:14:09;;;;;;;;;;;;;;;7.24;100.00;97757.97;6110585;19;20400;-72
2023/12/30 01:16:09;;;;;;;;;;;;;;;7.29;100.00;97749.41;6110807;19;19923;-72
2023/12/30 01:18:10;;;;;;;;;;;;;;;7.29;100.00;97769.47;6110652;19;19914;-72
2023/12/30 01:20:10;;;;;;;;;;;;;;;7.21;100.00;97756.00;6109910;19;19915;-72
2023/12/30 01:22:11;;;;;;;;;;;;;;;7.18;100.00;97756.72;6108785;19;19915;-72
2023/12/30 01:24:11;;;;;;;;;;;;;;;7.18;100.00;97757.50;6109659;19;20305;-72
2023/12/30 01:26:11;;;;;;;;;;;;;;;7.16;100.00;97754.34;6110505;19;19932;-72
2023/12/30 01:28:11;;;;;;;;;;;;;;;7.19;100.00;97769.31;6110698;19;20188;-72
2023/12/30 01:30:11;;;;;;;;;;;;;;;7.21;100.00;97769.75;6110335;19;19923;-73
2023/12/30 01:32:12;;;;;;;;;;;;;;;7.22;100.00;97763.88;6108467;19;19919;-72
2023/12/30 01:34:12;;;;;;;;;;;;;;;7.24;100.00;97769.00;6110551;19;20216;-72
2023/12/30 01:36:12;;;;;;;;;;;;;;;7.17;100.00;97769.69;6109426;19;20356;-72
2023/12/30 01:38:12;;;;;;;;;;;;;;;7.23;100.00;97778.41;6110326;19;20071;-72
2023/12/30 01:40:13;;;;;;;;;;;;;;;7.31;100.00;97775.38;6109383;19;20257;-72
2023/12/30 01:42:13;;;;;;;;;;;;;;;7.39;100.00;97780.97;6109116;19;20418;-72
2023/12/30 01:44:13;;;;;;;;;;;;;;;7.33;100.00;97777.75;6111071;19;19914;-72
2023/12/30 01:46:14;;;;;;;;;;;;;;;7.32;100.00;97787.19;6108435;19;19915;-72
2023/12/30 01:48:14;;;;;;;;;;;;;;;7.38;100.00;97793.16;6110834;19;19955;-72
2023/12/30 01:50:15;;;;;;;;;;;;;;;7.38;100.00;97799.47;6097215;19;19921;-72
2023/12/30 01:52:15;;;;;;;;;;;;;;;7.38;100.00;97806.91;6108153;19;19932;-72
2023/12/30 01:54:17;;;;;;;;;;;;;;;7.51;100.00;97806.28;6110031;19;19911;-72
2023/12/30 01:56:17;;;;;;;;;;;;;;;7.58;100.00;97813.84;6109945;19;19933;-72
2023/12/30 01:58:21;;;;;;;;;;;;;;;7.56;100.00;97814.22;6107275;19;19914;-72
2023/12/30 02:00:22;;;;;;;;;;;;;;;7.54;100.00;97827.59;6107340;19;19994;-72
2023/12/30 02:02:23;;;;;;;;;;;;;;;7.52;100.00;97812.59;6107738;19;20623;-72
2023/12/30 02:04:24;;;;;;;;;;;;;;;7.42;100.00;97808.53;6110018;19;19928;-72
2023/12/30 02:06:24;;;;;;;;;;;;;;;7.32;100.00;97825.72;6109293;19;19915;-72
2023/12/30 02:08:26;;;;;;;;;;;;;;;7.30;100.00;97822.53;6107130;19;19929;-72
2023/12/30 02:10:26;;;;;;;;;;;;;;;7.20;100.00;97832.25;6109575;19;19942;-72
2023/12/30 02:12:26;;;;;;;;;;;;;;;7.15;100.00;97829.78;6107649;19;20360;-72
2023/12/30 02:14:28;;;;;;;;;;;;;;;7.07;100.00;97830.06;6108174;19;20020;-72
2023/12/30 02:16:28;;;;;;;;;;;;;;;7.03;100.00;97835.50;6107080;19;20546;-72
2023/12/30 02:18:28;;;;;;;;;;;;;;;6.95;100.00;97833.78;6107377;19;19911;-72
2023/12/30 02:20:30;;;;;;;;;;;;;;;6.92;100.00;97831.78;6108052;19;20005;-72
2023/12/30 02:22:30;;;;;;;;;;;;;;;6.88;100.00;97842.75;6107372;19;20553;-73
2023/12/30 02:24:30;;;;;;;;;;;;;;;6.85;100.00;97843.47;6109713;19;19922;-73
2023/12/30 02:26:30;;;;;;;;;;;;;;;6.73;100.00;97847.22;6104753;19;19911;-73
2023/12/30 02:28:31;;;;;;;;;;;;;;;6.70;100.00;97834.22;6108989;19;19907;-72
2023/12/30 02:30:31;;;;;;;;;;;;;;;6.64;100.00;97832.94;6108382;19;20294;-73
2023/12/30 02:32:31;;;;;;;;;;;;;;;6.54;100.00;97825.31;6107546;19;19907;-73
2023/12/30 02:34:31;;;;;;;;;;;;;;;6.52;100.00;97835.84;6105929;19;19918;-73
2023/12/30 02:36:31;;;;;;;;;;;;;;;6.46;100.00;97831.84;6105518;19;19918;-72
2023/12/30 02:38:32;;;;;;;;;;;;;;;6.42;100.00;97829.03;6101033;19;20355;-72
2023/12/30 02:40:32;;;;;;;;;;;;;;;6.42;100.00;97836.47;6100108;19;19982;-73
2023/12/30 02:42:32;;;;;;;;;;;;;;;6.43;100.00;97832.56;6100639;19;19919;-72
2023/12/30 02:44:32;;;;;;;;;;;;;;;6.41;100.00;97821.94;6105251;19;19910;-72
2023/12/30 02:46:33;;;;;;;;;;;;;;;6.45;100.00;97824.75;6108257;19;19906;-72
2023/12/30 02:48:33;;;;;;;;;;;;;;;6.49;100.00;97825.59;6104467;19;19927;-72
2023/12/30 02:50:33;;;;;;;;;;;;;;;6.58;100.00;97825.34;6094412;19;19914;-72
2023/12/30 02:52:33;;;;;;;;;;;;;;;6.53;100.00;97820.16;6092318;19;20007;-72
2023/12/30 02:54:35;;;;;;;;;;;;;;;6.55;100.00;97821.41;6094517;19;19922;-72
2023/12/30 02:56:35;;;;;;;;;;;;;;;6.56;100.00;97825.72;6093754;19;19942;-72
2023/12/30 02:58:35;;;;;;;;;;;;;;;6.54;100.00;97825.31;6092493;19;20248;-72
2023/12/30 03:00:35;;;;;;;;;;;;;;;6.58;100.00;97823.41;6088376;19;19936;-73
2023/12/30 03:02:37;;;;;;;;;;;;;;;6.54;100.00;97821.75;6088716;19;20208;-72
2023/12/30 03:04:37;;;;;;;;;;;;;;;6.53;100.00;97828.41;6089483;19;20457;-72
2023/12/30 03:06:37;;;;;;;;;;;;;;;6.60;100.00;97821.06;6093260;19;20182;-72
2023/12/30 03:08:38;;;;;;;;;;;;;;;6.64;100.00;97827.44;6090740;19;19918;-72
2023/12/30 03:10:38;;;;;;;;;;;;;;;6.67;100.00;97831.41;6092894;19;19910;-72
2023/12/30 03:12:38;;;;;;;;;;;;;;;6.69;100.00;97837.31;6091245;19;19907;-72
2023/12/30 03:14:38;;;;;;;;;;;;;;;6.69;100.00;97816.13;6092557;19;19970;-72
2023/12/30 03:16:38;;;;;;;;;;;;;;;6.71;100.00;97824.03;6092235;19;19927;-72
2023/12/30 03:18:39;;;;;;;;;;;;;;;6.76;100.00;97832.72;6092837;19;19915;-72
2023/12/30 03:20:39;;;;;;;;;;;;;;;6.77;100.00;97839.03;6092729;19;19911;-72
2023/12/30 03:22:39;;;;;;;;;;;;;;;6.72;100.00;97840.13;6092110;19;19907;-72
2023/12/30 03:24:39;;;;;;;;;;;;;;;6.75;100.00;97842.16;6092554;19;19993;-72
2023/12/30 03:26:40;;;;;;;;;;;;;;;6.79;100.00;97839.47;6090420;19;19970;-72
2023/12/30 03:28:40;;;;;;;;;;;;;;;6.82;100.00;97848.94;6093121;19;19970;-72
2023/12/30 03:30:40;;;;;;;;;;;;;;;6.86;100.00;97855.25;6091642;19;20419;-72
2023/12/30 03:32:41;;;;;;;;;;;;;;;7.01;100.00;97857.88;6090530;19;20289;-72
2023/12/30 03:34:41;;;;;;;;;;;;;;;6.98;100.00;97860.59;6092885;19;19944;-71
2023/12/30 03:36:41;;;;;;;;;;;;;;;6.93;100.00;97856.16;6091982;19;19954;-72
2023/12/30 03:38:41;;;;;;;;;;;;;;;6.85;100.00;97868.22;6092329;19;19911;-72
2023/12/30 03:40:41;;;;;;;;;;;;;;;6.85;100.00;97868.22;6093753;19;19919;-71
2023/12/30 03:42:42;;;;;;;;;;;;;;;6.70;100.00;97867.22;6092917;19;20007;-72
2023/12/30 03:44:42;;;;;;;;;;;;;;;6.53;100.00;97866.88;6094170;19;19915;-72
2023/12/30 03:46:42;;;;;;;;;;;;;;;6.43;100.00;97862.78;6091998;19;20244;-72
2023/12/30 03:48:42;;;;;;;;;;;;;;;6.34;100.00;97863.03;6094890;19;20364;-71
2023/12/30 03:50:42;;;;;;;;;;;;;;;6.31;100.00;97868.47;6107688;19;19930;-72
2023/12/30 03:52:43;;;;;;;;;;;;;;;6.19;100.00;97870.22;6106843;19;19948;-72
2023/12/30 03:54:43;;;;;;;;;;;;;;;6.13;100.00;97873.63;6108639;19;20602;-72
2023/12/30 03:56:43;;;;;;;;;;;;;;;6.13;100.00;97882.66;6106668;19;19922;-72
2023/12/30 03:58:43;;;;;;;;;;;;;;;6.12;100.00;97885.75;6106056;19;19919;-72
2023/12/30 04:00:43;;;;;;;;;;;;;;;6.22;100.00;97892.63;6108681;19;19931;-72
2023/12/30 04:02:46;;;;;;;;;;;;;;;6.26;100.00;97875.03;6105300;19;19935;-72
2023/12/30 04:04:46;;;;;;;;;;;;;;;6.34;100.00;97886.97;6108113;19;19919;-72
2023/12/30 04:06:47;;;;;;;;;;;;;;;6.43;100.00;97891.06;6106725;19;20270;-72
2023/12/30 04:08:47;;;;;;;;;;;;;;;6.44;100.00;97880.88;6107705;19;20236;-72
2023/12/30 04:10:47;;;;;;;;;;;;;;;6.43;100.00;97890.28;6105747;19;19939;-72
2023/12/30 04:12:47;;;;;;;;;;;;;;;6.46;100.00;97901.34;6105771;19;19941;-71
2023/12/30 04:14:48;;;;;;;;;;;;;;;6.40;100.00;97902.78;6107963;19;19929;-72
2023/12/30 04:16:48;;;;;;;;;;;;;;;6.37;100.00;97899.97;6106646;19;19978;-72
2023/12/30 04:18:48;;;;;;;;;;;;;;;6.38;100.00;97902.38;6106977;19;19919;-72
2023/12/30 04:20:49;;;;;;;;;;;;;;;6.34;100.00;97908.94;6106735;19;19914;-72
2023/12/30 04:22:49;;;;;;;;;;;;;;;6.32;100.00;97908.53;6106022;19;20256;-72
2023/12/30 04:24:49;;;;;;;;;;;;;;;6.31;100.00;97895.94;6107393;19;19926;-72
2023/12/30 04:26:51;;;;;;;;;;;;;;;6.37;100.00;97899.97;6106793;19;19923;-72
2023/12/30 04:28:51;;;;;;;;;;;;;;;6.46;100.00;97892.31;6107359;19;19922;-72
2023/12/30 04:30:51;;;;;;;;;;;;;;;6.51;100.00;97897.50;6105629;19;19910;-72
2023/12/30 04:32:51;;;;;;;;;;;;;;;6.57;100.00;97900.72;6106262;19;20581;-72
2023/12/30 04:34:52;;;;;;;;;;;;;;;6.56;100.00;97908.19;6107866;19;19925;-72
2023/12/30 04:36:53;;;;;;;;;;;;;;;6.57;100.00;97898.78;6105185;19;19911;-72
2023/12/30 04:38:53;;;;;;;;;;;;;;;6.59;100.00;97901.16;6110882;19;19911;-72
2023/12/30 04:40:53;;;;;;;;;;;;;;;6.64;100.00;97890.66;6112545;19;19915;-72
2023/12/30 04:42:53;;;;;;;;;;;;;;;6.66;100.00;97913.06;6111590;19;19911;-72
2023/12/30 04:44:54;;;;;;;;;;;;;;;6.69;100.00;97895.84;6110735;19;20732;-72
2023/12/30 04:46:54;;;;;;;;;;;;;;;6.72;100.00;97914.38;6111790;19;19907;-72
2023/12/30 04:48:54;;;;;;;;;;;;;;;6.80;100.00;97918.03;6112150;19;19914;-72
2023/12/30 04:50:55;;;;;;;;;;;;;;;6.91;100.00;97935.50;6111250;19;19942;-72
2023/12/30 04:52:55;;;;;;;;;;;;;;;6.90;100.00;97935.88;6111006;19;19910;-72
2023/12/30 04:54:55;;;;;;;;;;;;;;;6.97;100.00;97941.50;6112389;19;19915;-72
2023/12/30 04:56:55;;;;;;;;;;;;;;;6.88;100.00;97938.22;6111164;19;20318;-72
2023/12/30 04:58:56;;;;;;;;;;;;;;;6.82;100.00;97939.66;6112624;19;20316;-72
2023/12/30 05:00:56;;;;;;;;;;;;;;;6.79;100.00;97943.94;6111954;19;19918;-72
2023/12/30 05:02:57;;;;;;;;;;;;;;;6.76;100.00;97937.22;6110828;19;20241;-72
2023/12/30 05:04:57;;;;;;;;;;;;;;;6.67;100.00;97944.91;6111491;19;19921;-72
2023/12/30 05:06:57;;;;;;;;;;;;;;;6.58;100.00;97949.03;6113085;19;19978;-72
2023/12/30 05:09:00;;;;;;;;;;;;;;;6.67;100.00;97974.34;6112128;19;20006;-72
2023/12/30 05:11:06;;;;;;;;;;;;;;;6.76;100.00;97972.94;6112295;19;19963;-71
2023/12/30 05:13:06;;;;;;;;;;;;;;;6.52;100.00;97976.03;6111345;19;19910;-72
2023/12/30 05:15:06;;;;;;;;;;;;;;;6.11;100.00;97972.84;6110240;19;19921;-72
2023/12/30 05:17:07;;;;;;;;;;;;;;;5.89;100.00;97968.06;6111224;19;20264;-72
2023/12/30 05:19:07;;;;;;;;;;;;;;;5.88;100.00;97959.03;6112054;19;19960;-72
2023/12/30 05:21:14;;;;;;;;;;;;;;;5.83;100.00;97972.22;6111259;19;19949;-72
2023/12/30 05:23:14;;;;;;;;;;;;;;;5.75;100.00;97973.22;6111213;19;19910;-72
2023/12/30 05:25:14;;;;;;;;;;;;;;;5.79;100.00;97977.66;6112221;19;19915;-72
2023/12/30 05:27:15;;;;;;;;;;;;;;;5.77;100.00;97976.41;6111771;19;19928;-72
2023/12/30 05:29:15;;;;;;;;;;;;;;;5.76;100.00;97983.84;6111132;19;19931;-72
2023/12/30 05:31:15;;;;;;;;;;;;;;;5.81;100.00;97982.78;6112652;19;19915;-72
2023/12/30 05:33:15;;;;;;;;;;;;;;;5.85;100.00;97989.91;6110737;19;19982;-72
2023/12/30 05:35:16;;;;;;;;;;;;;;;5.94;100.00;97994.44;6111908;19;19970;-71
2023/12/30 05:37:16;;;;;;;;;;;;;;;6.03;100.00;97990.34;6111940;19;20252;-72
2023/12/30 05:39:16;;;;;;;;;;;;;;;6.03;100.00;98001.31;6111253;19;19938;-72
2023/12/30 05:41:16;;;;;;;;;;;;;;;5.96;100.00;98017.66;6111238;19;19999;-72
2023/12/30 05:43:17;;;;;;;;;;;;;;;5.76;100.00;98010.50;6110501;19;19914;-72
2023/12/30 05:45:17;;;;;;;;;;;;;;;5.55;100.00;97999.84;6108878;19;19922;-72
2023/12/30 05:47:17;;;;;;;;;;;;;;;5.50;100.00;98006.38;6111838;19;19925;-72
2023/12/30 05:49:18;;;;;;;;;;;;;;;5.41;100.00;98013.22;6109793;19;19927;-72
2023/12/30 05:51:18;;;;;;;;;;;;;;;5.39;100.00;98008.09;6107788;19;20237;-72
2023/12/30 05:53:18;;;;;;;;;;;;;;;5.42;100.00;98015.59;6110489;19;19925;-72
2023/12/30 05:55:18;;;;;;;;;;;;;;;5.45;100.00;98025.03;6109886;19;20289;-72
2023/12/30 05:57:18;;;;;;;;;;;;;;;5.43;100.00;98038.34;6111344;19;19922;-72
2023/12/30 05:59:19;;;;;;;;;;;;;;;5.37;100.00;98051.50;6111257;19;19922;-71
2023/12/30 06:01:19;;;;;;;;;;;;;;;5.27;100.00;98035.59;6109831;19;19915;-72
2023/12/30 06:03:20;;;;;;;;;;;;;;;5.17;100.00;98034.16;6110630;19;19910;-72
2023/12/30 06:05:20;;;;;;;;;;;;;;;5.02;100.00;98046.72;6111146;19;19919;-72
2023/12/30 06:07:20;;;;;;;;;;;;;;;4.94;100.00;98041.41;6110868;19;19919;-72
2023/12/30 06:09:20;;;;;;;;;;;;;;;4.94;100.00;98053.16;6111204;19;19938;-72
2023/12/30 06:11:20;;;;;;;;;;;;;;;4.92;100.00;98060.94;6111229;19;20327;-72
2023/12/30 06:13:21;;;;;;;;;;;;;;;4.91;100.00;98048.38;6109836;19;19923;-71
2023/12/30 06:15:21;;;;;;;;;;;;;;;4.91;100.00;98042.91;6110348;19;19927;-71
2023/12/30 06:17:21;;;;;;;;;;;;;;;4.94;100.00;98044.13;6110938;19;19934;-72
2023/12/30 06:19:22;;;;;;;;;;;;;;;4.90;100.00;98044.06;6111008;19;19918;-71
2023/12/30 06:21:22;;;;;;;;;;;;;;;4.91;100.00;98045.66;6110405;19;19915;-72
2023/12/30 06:23:22;;;;;;;;;;;;;;;4.85;100.00;98044.28;6110399;19;19932;-71
2023/12/30 06:25:23;;;;;;;;;;;;;;;4.86;100.00;98054.09;6109898;19;20232;-72
2023/12/30 06:27:23;;;;;;;;;;;;;;;4.81;100.00;98054.38;6109216;19;20427;-72
2023/12/30 06:29:26;;;;;;;;;;;;;;;4.86;100.00;98076.03;6110307;19;19922;-72
2023/12/30 06:31:27;;;;;;;;;;;;;;;4.83;100.00;98068.53;6110351;19;20240;-72
2023/12/30 06:33:27;;;;;;;;;;;;;;;4.89;100.00;98069.09;6110432;19;19915;-72
2023/12/30 06:35:27;;;;;;;;;;;;;;;4.88;100.00;98060.06;6109499;19;19914;-72
2023/12/30 06:37:27;;;;;;;;;;;;;;;4.84;100.00;98056.41;6110607;19;19927;-72
2023/12/30 06:39:27;;;;;;;;;;;;;;;4.85;100.00;98073.66;6109557;19;19918;-72
2023/12/30 06:41:27;;;;;;;;;;;;;;;4.88;100.00;98082.00;6109481;19;19965;-72
2023/12/30 06:43:28;;;;;;;;;;;;;;;4.83;100.00;98067.72;6110074;19;19915;-72
2023/12/30 06:45:28;;;;;;;;;;;;;;;4.75;100.00;98074.97;6110511;19;19962;-72
2023/12/30 06:47:28;;;;;;;;;;;;;;;4.73;100.00;98080.00;6109832;19;20250;-72
2023/12/30 06:49:28;;;;;;;;;;;;;;;4.70;100.00;98075.19;6098487;19;20292;-72
2023/12/30 06:51:29;;;;;;;;;;;;;;;4.69;100.00;98068.13;6109505;19;19932;-72
2023/12/30 06:53:29;;;;;;;;;;;;;;;4.68;100.00;98063.78;6110278;19;19923;-72
2023/12/30 06:55:29;;;;;;;;;;;;;;;4.66;100.00;98060.63;6107612;19;19922;-72
2023/12/30 06:57:30;;;;;;;;;;;;;;;4.65;100.00;98070.00;6103680;19;20583;-72
2023/12/30 06:59:30;;;;;;;;;;;;;;;4.61;100.00;98071.81;6102154;19;19921;-72
2023/12/30 07:01:30;;;;;;;;;;;;;;;4.61;100.00;98078.09;6097213;19;19926;-72
2023/12/30 07:03:31;;;;;;;;;;;;;;;4.60;100.00;98081.19;6103617;19;19915;-72
2023/12/30 07:05:35;;;;;;;;;;;;;;;4.59;100.00;98085.06;6105690;19;19937;-72
2023/12/30 07:07:36;;;;;;;;;;;;;;;4.54;100.00;98088.03;6101041;19;19922;-72
2023/12/30 07:09:36;;;;;;;;;;;;;;;4.53;100.00;98087.25;6107849;19;19918;-72
2023/12/30 07:11:36;;;;;;;;;;;;;;;4.54;100.00;98094.31;6103511;19;20414;-72
2023/12/30 07:13:37;;;;;;;;;;;;;;;4.61;100.00;98091.78;6103789;19;19922;-72
2023/12/30 07:15:37;;;;;;;;;;;;;;;4.86;100.00;98083.47;6103672;19;19911;-72
2023/12/30 07:17:37;;;;;;;;;;;;;;;5.01;100.00;98096.41;6099074;19;19919;-72
2023/12/30 07:19:37;;;;;;;;;;;;;;;5.18;100.00;98096.09;6103897;19;20002;-72
2023/12/30 07:21:37;;;;;;;;;;;;;;;5.40;100.00;98102.94;6103308;19;19910;-72
2023/12/30 07:23:38;;;;;;;;;;;;;;;5.47;100.00;98102.34;6101685;19;19915;-72
2023/12/30 07:25:39;;;;;;;;;;;;;;;5.51;100.00;98106.75;6101782;19;20436;-72
2023/12/30 07:27:39;;;;;;;;;;;;;;;5.48;100.00;98096.50;6100344;19;21391;-72
2023/12/30 07:29:40;;;;;;;;;;;;;;;5.52;100.00;98099.31;6103910;19;19913;-72
2023/12/30 07:31:40;;;;;;;;;;;;;;;5.55;100.00;98104.91;6099676;19;19914;-72
2023/12/30 07:33:40;;;;;;;;;;;;;;;5.60;100.00;98112.84;6103117;19;20011;-72
2023/12/30 07:35:40;;;;;;;;;;;;;;;5.70;100.00;98110.72;6098473;19;19930;-72
2023/12/30 07:37:41;;;;;;;;;;;;;;;5.78;100.00;98110.53;6102314;19;20331;-72
2023/12/30 07:39:42;;;;;;;;;;;;;;;5.80;100.00;98110.22;6105053;19;19925;-72
2023/12/30 07:41:42;;;;;;;;;;;;;;;5.84;100.00;98109.13;6105471;19;19922;-72
2023/12/30 07:43:43;;;;;;;;;;;;;;;5.84;100.00;98102.84;6106688;19;20603;-72
2023/12/30 07:45:43;;;;;;;;;;;;;;;5.87;100.00;98111.16;6107422;19;19942;-72
2023/12/30 07:47:44;;;;;;;;;;;;;;;5.90;100.00;98115.16;6101863;19;19919;-72
2023/12/30 07:49:44;;;;;;;;;;;;;;;5.92;100.00;98112.88;6094682;19;19914;-72
2023/12/30 07:51:45;;;;;;;;;;;;;;;5.95;100.00;98114.91;6091989;19;19956;-72
2023/12/30 07:53:45;;;;;;;;;;;;;;;5.94;100.00;98118.81;6092551;19;19919;-72
2023/12/30 07:55:45;;;;;;;;;;;;;;;6.02;100.00;98117.03;6093122;19;20308;-72
2023/12/30 07:57:46;;;;;;;;;;;;;;;6.07;100.00;98130.50;6093107;19;19915;-72
2023/12/30 07:59:46;;;;;;;;;;;;;;;6.12;100.00;98132.94;6093637;19;19943;-72
2023/12/30 08:01:46;;;;;;;;;;;;;;;6.19;100.00;98136.66;6089239;19;19928;-72
2023/12/30 08:03:46;;;;;;;;;;;;;;;6.17;100.00;98157.41;6093587;19;19939;-72
2023/12/30 08:05:46;;;;;;;;;;;;;;;6.26;100.00;98148.97;6092082;19;19910;-71
2023/12/30 08:07:46;;;;;;;;;;;;;;;6.27;100.00;98142.31;6090874;19;20537;-72
2023/12/30 08:09:47;;;;;;;;;;;;;;;6.24;100.00;98143.06;6089112;19;20192;-71
2023/12/30 08:11:47;;;;;;;;;;;;;;;6.18;100.00;98148.81;6087979;19;19911;-72
2023/12/30 08:13:47;;;;;;;;;;;;;;;6.16;100.00;98145.63;6090825;19;20288;-72
2023/12/30 08:15:47;;;;;;;;;;;;;;;6.15;100.00;98149.53;6094154;19;20215;-72
2023/12/30 08:17:47;;;;;;;;;;;;;;;6.18;100.00;98153.50;6092862;19;19910;-72
2023/12/30 08:19:48;;;;;;;;;;;;;;;6.22;100.00;98145.38;6093722;19;20430;-72
2023/12/30 08:21:48;;;;;;;;;;;;;;;6.18;100.00;98148.00;6094956;19;19911;-72
2023/12/30 08:23:48;;;;;;;;;;;;;;;6.09;100.00;98142.72;6093986;19;19915;-72
2023/12/30 08:25:48;;;;;;;;;;;;;;;6.06;100.00;98143.44;6096269;19;20236;-71
2023/12/30 08:27:49;;;;;;;;;;;;;;;6.00;100.00;98136.59;6094567;19;19918;-72
2023/12/30 08:29:49;;;;;;;;;;;;;;;6.08;100.00;98132.09;6096883;19;20145;-72
2023/12/30 08:31:49;;;;;;;;;;;;;;;6.09;100.00;98131.72;6095924;19;20092;-72
2023/12/30 08:33:50;;;;;;;;;;;;;;;6.13;100.00;98140.06;6098155;19;20304;-72
2023/12/30 08:35:51;;;;;;;;;;;;;;;6.17;100.00;98130.72;6097729;19;20344;-72
2023/12/30 08:37:51;;;;;;;;;;;;;;;6.23;100.00;98134.00;6097265;19;19911;-72
2023/12/30 08:39:51;;;;;;;;;;;;;;;6.28;100.00;98130.19;6096414;19;20727;-71
2023/12/30 08:41:52;;;;;;;;;;;;;;;6.27;100.00;98123.88;6095604;19;19974;-71
2023/12/30 08:43:52;;;;;;;;;;;;;;;6.31;100.00;98116.53;6094905;19;19921;-72
2023/12/30 08:45:52;;;;;;;;;;;;;;;6.34;100.00;98115.00;6090416;19;19982;-71
2023/12/30 08:47:52;;;;;;;;;;;;;;;6.38;100.00;98129.66;6090466;19;19910;-72
2023/12/30 08:49:53;;;;;;;;;;;;;;;6.34;100.00;98135.03;6100257;19;19915;-72
2023/12/30 08:51:53;;;;;;;;;;;;;;;6.41;100.00;98139.91;6105150;19;19914;-72
2023/12/30 08:53:54;;;;;;;;;;;;;;;6.46;100.00;98136.88;6105954;19;21275;-72
2023/12/30 08:55:55;;;;;;;;;;;;;;;6.55;100.00;98145.72;6106454;19;19930;-72
2023/12/30 08:57:55;;;;;;;;;;;;;;;6.63;100.00;98144.72;6108037;19;20228;-71
2023/12/30 08:59:55;;;;;;;;;;;;;;;6.71;100.00;98149.22;6108875;19;19935;-72
2023/12/30 09:01:55;;;;;;;;;;;;;;;6.75;100.00;98152.03;6104421;19;19910;-72
2023/12/30 09:03:56;;;;;;;;;;;;;;;6.73;100.00;98155.16;6106534;19;20287;-72
2023/12/30 09:05:56;;;;;;;;;;;;;;;6.86;100.00;98168.75;6109152;19;19915;-72
2023/12/30 09:07:56;;;;;;;;;;;;;;;6.88;100.00;98158.22;6110949;19;19919;-72
2023/12/30 09:09:57;;;;;;;;;;;;;;;6.90;100.00;98147.63;6111127;19;19910;-71
2023/12/30 09:11:57;;;;;;;;;;;;;;;6.92;100.00;98148.84;6109508;19;19906;-72
2023/12/30 09:13:58;;;;;;;;;;;;;;;6.90;100.00;98159.44;6110586;19;19940;-72
2023/12/30 09:15:58;;;;;;;;;;;;;;;6.91;100.00;98161.03;6109969;19;19945;-71
2023/12/30 09:17:59;;;;;;;;;;;;;;;6.94;100.00;98173.25;6110958;19;20324;-72
2023/12/30 09:19:59;;;;;;;;;;;;;;;6.89;100.00;98177.09;6110509;19;20232;-71
2023/12/30 09:21:59;;;;;;;;;;;;;;;6.86;100.00;98188.78;6109756;19;19921;-72
2023/12/30 09:23:59;;;;;;;;;;;;;;;6.90;100.00;98192.44;6108191;19;19921;-71
2023/12/30 09:25:59;;;;;;;;;;;;;;;6.90;100.00;98192.44;6108921;19;19921;-72
2023/12/30 09:28:00;;;;;;;;;;;;;;;6.90;100.00;98197.13;6111023;19;19914;-72
2023/12/30 09:30:00;;;;;;;;;;;;;;;6.90;100.00;98197.13;6110585;19;19916;-72
2023/12/30 09:32:00;;;;;;;;;;;;;;;7.00;100.00;98207.56;6109051;19;19911;-72
2023/12/30 09:34:00;;;;;;;;;;;;;;;7.03;100.00;98199.41;6110120;19;19922;-72
2023/12/30 09:36:01;;;;;;;;;;;;;;;7.07;100.00;98201.41;6109561;19;19907;-72
2023/12/30 09:38:01;;;;;;;;;;;;;;;7.06;100.00;98206.13;6109697;19;19918;-71
2023/12/30 09:40:02;;;;;;;;;;;;;;;7.04;100.00;98202.94;6110108;19;19935;-72
2023/12/30 09:42:02;;;;;;;;;;;;;;;7.06;100.00;98214.38;6109011;19;19910;-72
2023/12/30 09:44:03;;;;;;;;;;;;;;;7.06;100.00;98217.13;6110816;19;19919;-71
2023/12/30 09:46:03;;;;;;;;;;;;;;;7.08;100.00;98212.06;6109913;19;19913;-72
2023/12/30 09:48:05;;;;;;;;;;;;;;;7.07;100.00;98224.22;6110585;19;20308;-72
2023/12/30 09:50:06;;;;;;;;;;;;;;;7.01;100.00;98217.41;6109405;19;19911;-72
2023/12/30 09:52:06;;;;;;;;;;;;;;;6.99;100.00;98222.47;6109466;19;19928;-72
2023/12/30 09:54:06;;;;;;;;;;;;;;;7.00;100.00;98218.56;6107944;19;20568;-72
2023/12/30 09:56:07;;;;;;;;;;;;;;;7.04;100.00;98227.72;6110343;19;19938;-72
2023/12/30 09:58:08;;;;;;;;;;;;;;;7.12;100.00;98223.16;6109739;19;19947;-71
2023/12/30 10:00:08;;;;;;;;;;;;;;;7.17;100.00;98217.34;6109731;19;19907;-72
2023/12/30 10:02:09;;;;;;;;;;;;;;;7.14;100.00;98232.63;6109505;19;19918;-72
2023/12/30 10:04:10;;;;;;;;;;;;;;;7.16;100.00;98235.81;6110230;19;19939;-72
2023/12/30 10:06:11;;;;;;;;;;;;;;;7.25;100.00;98238.34;6108494;19;19938;-71
2023/12/30 10:08:11;;;;;;;;;;;;;;;7.35;100.00;98248.78;6110275;19;19903;-72
2023/12/30 10:10:12;;;;;;;;;;;;;;;7.40;100.00;98253.19;6109615;19;19905;-72
2023/12/30 10:12:12;;;;;;;;;;;;;;;7.38;100.00;98261.81;6109297;19;19921;-72
2023/12/30 10:14:12;;;;;;;;;;;;;;;7.42;100.00;98256.38;6109180;19;19910;-72
2023/12/30 10:16:13;;;;;;;;;;;;;;;7.39;100.00;98259.88;6109084;19;20217;-72
2023/12/30 10:18:15;;;;;;;;;;;;;;;7.43;100.00;98266.22;6109513;19;19911;-71
2023/12/30 10:20:20;;;;;;;;;;;;;;;7.48;100.00;98257.69;6109510;19;20312;-71
2023/12/30 10:22:20;;;;;;;;;;;;;;;7.42;100.00;98262.69;6109157;19;19919;-72
2023/12/30 10:24:21;;;;;;;;;;;;;;;7.39;100.00;98255.16;6110420;19;20167;-72
2023/12/30 10:26:21;;;;;;;;;;;;;;;7.33;100.00;98248.34;6109096;19;19915;-72
2023/12/30 10:28:21;;;;;;;;;;;;;;;7.29;100.00;98262.03;6109106;19;19946;-72